Time;durP1;ratioP1;P1;durP2;ratioP2;P2;SDS_P1;SDS_P2;PMS_P1;PMS_P2;Temp;Humidity;BMP_temperature;BMP_pressure;BME280_temperature;BME280_humidity;BME280_pressure;Samples;Min_cycle;Max_cycle;Signal;HPM_P1;HPM_P2
2023/09/29 00:01:46;;;;;;;18.20;16.60;;;20.10;99.90;;;;;;5073707;28;20803;-86
2023/09/29 00:04:13;;;;;;;18.20;16.60;;;20.10;99.90;;;;;;5051462;28;20487;-82
2023/09/29 00:06:40;;;;;;;17.20;15.70;;;20.10;99.90;;;;;;5070795;28;20485;-87
2023/09/29 00:09:12;;;;;;;16.23;14.83;;;20.10;99.90;;;;;;5073823;28;20466;-81
2023/09/29 00:11:39;;;;;;;19.03;17.23;;;20.00;99.90;;;;;;5073952;28;20466;-86
2023/09/29 00:14:06;;;;;;;17.57;16.07;;;20.00;99.90;;;;;;5073448;28;20515;-87
2023/09/29 00:16:33;;;;;;;19.30;17.57;;;20.00;99.90;;;;;;5074126;28;20470;-87
2023/09/29 00:19:02;;;;;;;18.93;17.27;;;20.00;99.90;;;;;;5074886;28;20477;-83
2023/09/29 00:21:29;;;;;;;20.10;18.23;;;20.00;99.90;;;;;;5073673;28;20813;-86
2023/09/29 00:23:56;;;;;;;19.03;17.43;;;20.00;99.90;;;;;;5074360;28;20496;-86
2023/09/29 00:26:23;;;;;;;21.40;19.50;;;20.00;99.90;;;;;;5075066;28;20481;-87
2023/09/29 00:28:50;;;;;;;17.63;16.03;;;20.00;99.90;;;;;;5073193;28;21026;-87
2023/09/29 00:31:17;;;;;;;19.10;17.50;;;19.90;99.90;;;;;;5074766;28;20462;-87
2023/09/29 00:33:45;;;;;;;18.90;17.20;;;19.90;99.90;;;;;;5072241;28;20462;-84
2023/09/29 00:36:13;;;;;;;18.47;16.87;;;19.90;99.90;;;;;;5072807;28;20968;-82
2023/09/29 00:38:40;;;;;;;19.07;17.30;;;19.90;99.90;;;;;;5072479;28;20474;-88
2023/09/29 00:41:07;;;;;;;17.53;15.83;;;19.90;99.90;;;;;;5072107;28;20454;-88
2023/09/29 00:43:35;;;;;;;18.53;16.93;;;19.90;99.90;;;;;;5072494;28;20466;-88
2023/09/29 00:46:08;;;;;;;16.67;15.27;;;19.90;99.90;;;;;;5071734;28;20812;-87
2023/09/29 00:48:36;;;;;;;19.07;17.47;;;19.90;99.90;;;;;;5073156;28;20864;-83
2023/09/29 00:51:03;;;;;;;18.50;16.90;;;19.90;99.90;;;;;;5071643;28;20955;-86
2023/09/29 00:53:33;;;;;;;18.53;16.57;;;19.90;99.90;;;;;;5074246;28;20959;-81
2023/09/29 00:56:02;;;;;;;18.40;16.70;;;19.90;99.90;;;;;;5072509;28;21035;-83
2023/09/29 00:58:29;;;;;;;17.90;16.40;;;19.90;99.90;;;;;;5074088;28;20535;-87
2023/09/29 01:00:56;;;;;;;17.87;16.30;;;19.80;99.90;;;;;;5075496;28;20535;-83
2023/09/29 01:03:25;;;;;;;16.10;14.60;;;19.80;99.90;;;;;;5075676;28;20527;-87
2023/09/29 01:05:53;;;;;;;18.20;16.60;;;19.80;99.90;;;;;;5077196;28;20471;-86
2023/09/29 01:08:21;;;;;;;17.43;16.00;;;19.80;99.90;;;;;;5077097;28;20541;-87
2023/09/29 01:10:50;;;;;;;17.53;16.10;;;19.80;99.90;;;;;;5076517;28;20474;-83
2023/09/29 01:13:17;;;;;;;18.40;16.70;;;19.80;99.90;;;;;;5075842;28;20907;-87
2023/09/29 01:15:44;;;;;;;18.03;16.43;;;19.80;99.90;;;;;;5076248;28;20474;-88
2023/09/29 01:18:11;;;;;;;17.60;16.20;;;19.70;99.90;;;;;;5076500;28;20519;-87
2023/09/29 01:20:41;;;;;;;17.30;15.83;;;19.70;99.90;;;;;;5076029;28;20532;-82
2023/09/29 01:23:08;;;;;;;17.53;16.00;;;19.70;99.90;;;;;;5075344;28;20513;-87
2023/09/29 01:25:37;;;;;;;20.07;18.20;;;19.70;99.90;;;;;;5075287;28;20477;-87
2023/09/29 01:28:07;;;;;;;17.40;15.90;;;19.70;99.90;;;;;;5074879;28;20474;-83
2023/09/29 01:30:36;;;;;;;18.90;17.20;;;19.70;99.90;;;;;;5075855;28;20470;-87
2023/09/29 01:33:05;;;;;;;20.83;18.83;;;19.70;99.90;;;;;;5075264;28;20479;-82
2023/09/29 01:35:32;;;;;;;20.07;18.27;;;19.70;99.90;;;;;;5065762;28;20466;-82
2023/09/29 01:38:00;;;;;;;19.10;17.40;;;19.70;99.90;;;;;;5061992;28;20542;-82
2023/09/29 01:40:27;;;;;;;16.43;14.97;;;19.70;99.90;;;;;;5075626;28;20462;-87
2023/09/29 01:42:57;;;;;;;18.67;17.03;;;19.70;99.90;;;;;;5075793;28;20481;-87
2023/09/29 01:45:25;;;;;;;20.73;18.93;;;19.70;99.90;;;;;;5075293;28;20490;-87
2023/09/29 01:47:52;;;;;;;19.57;17.87;;;19.70;99.90;;;;;;5074953;28;20475;-82
2023/09/29 01:50:21;;;;;;;17.73;16.20;;;19.70;99.90;;;;;;5074936;28;20525;-87
2023/09/29 01:52:49;;;;;;;17.93;16.23;;;19.70;99.90;;;;;;5075034;28;20549;-82
2023/09/29 01:55:22;;;;;;;15.77;14.53;;;19.70;99.90;;;;;;5074045;28;20470;-83
2023/09/29 01:57:50;;;;;;;18.13;16.53;;;19.70;99.90;;;;;;5074772;28;20469;-82
2023/09/29 02:00:24;;;;;;;16.80;15.10;;;19.70;99.90;;;;;;5074693;28;20470;-87
2023/09/29 02:02:51;;;;;;;14.60;13.33;;;19.70;99.90;;;;;;5074583;28;20477;-82
2023/09/29 02:05:18;;;;;;;16.57;15.00;;;19.70;99.90;;;;;;5074007;28;20478;-83
2023/09/29 02:07:46;;;;;;;16.80;15.40;;;19.70;99.90;;;;;;5074723;28;20478;-87
2023/09/29 02:10:13;;;;;;;16.40;15.03;;;19.70;99.90;;;;;;5073974;28;20979;-87
2023/09/29 02:12:46;;;;;;;15.53;14.23;;;19.70;99.90;;;;;;5074421;28;20478;-82
2023/09/29 02:15:13;;;;;;;15.43;14.13;;;19.70;99.90;;;;;;5073450;28;20561;-81
2023/09/29 02:17:42;;;;;;;18.63;16.97;;;19.60;99.90;;;;;;5074435;28;20477;-82
2023/09/29 02:20:15;;;;;;;16.47;15.17;;;19.70;99.90;;;;;;5073908;28;20470;-87
2023/09/29 02:22:42;;;;;;;16.30;14.50;;;19.70;99.90;;;;;;5073980;28;20467;-82
2023/09/29 02:25:34;;;;;;;17.50;15.90;;;19.60;99.90;;;;;;5074005;28;20475;-82
2023/09/29 02:28:10;;;;;;;15.33;14.13;;;19.60;99.90;;;;;;5062856;28;20474;-82
2023/09/29 02:30:38;;;;;;;15.67;14.33;;;19.60;99.90;;;;;;5073926;28;20458;-83
2023/09/29 02:33:06;;;;;;;16.33;14.83;;;19.60;99.90;;;;;;5074225;28;20792;-82
2023/09/29 02:35:33;;;;;;;16.10;14.80;;;19.60;99.90;;;;;;5074982;28;20478;-87
2023/09/29 02:38:03;;;;;;;15.77;14.37;;;19.60;99.90;;;;;;5074708;28;20447;-87
2023/09/29 02:40:30;;;;;;;15.23;13.80;;;19.50;99.90;;;;;;5074854;28;20803;-87
2023/09/29 02:42:57;;;;;;;17.63;16.13;;;19.50;99.90;;;;;;5075745;28;21288;-87
2023/09/29 02:45:26;;;;;;;15.63;14.30;;;19.50;99.90;;;;;;5074918;28;20547;-82
2023/09/29 02:47:53;;;;;;;17.07;15.57;;;19.50;99.90;;;;;;5077777;28;20523;-83
2023/09/29 02:50:24;;;;;;;16.60;15.00;;;19.50;99.90;;;;;;5073948;28;20466;-82
2023/09/29 02:52:52;;;;;;;16.03;14.77;;;19.50;99.90;;;;;;5074250;28;20504;-88
2023/09/29 02:55:19;;;;;;;15.30;14.10;;;19.50;99.90;;;;;;5074619;28;20509;-87
2023/09/29 02:57:50;;;;;;;15.50;14.20;;;19.50;99.90;;;;;;5074884;28;20466;-87
2023/09/29 03:00:18;;;;;;;16.70;15.20;;;19.50;99.90;;;;;;5074918;28;20477;-87
2023/09/29 03:02:46;;;;;;;15.67;14.40;;;19.50;99.90;;;;;;5073387;28;20566;-87
2023/09/29 03:05:14;;;;;;;15.10;13.80;;;19.40;99.90;;;;;;5074514;28;20841;-86
2023/09/29 03:07:42;;;;;;;16.33;14.77;;;19.40;99.90;;;;;;5063198;28;20600;-82
2023/09/29 03:10:14;;;;;;;15.70;14.40;;;19.40;99.90;;;;;;5057480;28;20469;-87
2023/09/29 03:12:41;;;;;;;16.43;15.00;;;19.40;99.90;;;;;;5073431;28;20470;-81
2023/09/29 03:15:09;;;;;;;17.07;15.67;;;19.40;99.90;;;;;;5072648;28;20469;-82
2023/09/29 03:17:37;;;;;;;15.30;14.00;;;19.40;99.90;;;;;;5073116;28;20490;-82
2023/09/29 03:20:10;;;;;;;16.90;15.30;;;19.40;99.90;;;;;;5073530;28;20470;-82
2023/09/29 03:22:38;;;;;;;15.87;14.53;;;19.40;99.90;;;;;;5072633;28;20516;-88
2023/09/29 03:25:06;;;;;;;17.20;15.80;;;19.40;99.90;;;;;;5072648;28;20474;-88
2023/09/29 03:27:34;;;;;;;15.80;14.50;;;19.40;99.90;;;;;;5072912;28;20462;-83
2023/09/29 03:30:01;;;;;;;16.43;15.00;;;19.40;99.90;;;;;;5072351;28;20532;-83
2023/09/29 03:32:29;;;;;;;18.10;16.50;;;19.40;99.90;;;;;;5073329;28;20466;-83
2023/09/29 03:34:56;;;;;;;16.83;15.23;;;19.40;99.90;;;;;;5072606;28;20975;-83
2023/09/29 03:37:24;;;;;;;17.83;16.33;;;19.40;99.90;;;;;;5073420;28;20531;-83
2023/09/29 03:39:51;;;;;;;16.23;14.77;;;19.30;99.90;;;;;;5072421;28;20517;-88
2023/09/29 03:42:21;;;;;;;15.60;14.20;;;19.30;99.90;;;;;;5072288;28;20462;-83
2023/09/29 03:44:48;;;;;;;16.97;15.63;;;19.30;99.90;;;;;;5072338;28;20479;-81
2023/09/29 03:50:43;;;;;;;17.83;15.90;;;19.30;99.90;;;;;;5019483;28;20454;-83
2023/09/29 03:53:11;;;;;;;17.47;16.07;;;19.30;99.90;;;;;;5073242;28;20493;-88
2023/09/29 03:55:38;;;;;;;15.27;13.87;;;19.30;99.90;;;;;;5072085;28;20971;-83
2023/09/29 03:58:06;;;;;;;16.10;14.63;;;19.30;99.90;;;;;;5073260;28;20978;-83
2023/09/29 04:00:33;;;;;;;15.33;14.07;;;19.30;99.90;;;;;;5072134;28;20527;-83
2023/09/29 04:03:01;;;;;;;15.17;13.77;;;19.30;99.90;;;;;;5072544;28;20472;-82
2023/09/29 04:05:28;;;;;;;17.00;15.30;;;19.30;99.90;;;;;;5061192;28;20513;-81
2023/09/29 04:07:55;;;;;;;13.70;12.50;;;19.30;99.90;;;;;;5072557;28;20470;-82
2023/09/29 04:10:22;;;;;;;14.80;13.47;;;19.40;99.90;;;;;;5072199;28;20470;-81
2023/09/29 04:12:50;;;;;;;13.70;12.50;;;19.30;99.90;;;;;;5072530;28;20470;-88
2023/09/29 04:15:18;;;;;;;13.57;12.47;;;19.30;99.90;;;;;;5072572;28;20470;-83
2023/09/29 04:17:45;;;;;;;14.00;12.60;;;19.30;99.90;;;;;;5072825;28;20466;-83
2023/09/29 04:20:13;;;;;;;13.57;12.43;;;19.30;99.90;;;;;;5072252;28;20466;-84
2023/09/29 04:22:40;;;;;;;14.67;13.47;;;19.30;99.90;;;;;;5072614;28;20470;-88
2023/09/29 04:25:10;;;;;;;13.27;12.03;;;19.30;99.90;;;;;;5072266;28;20489;-83
2023/09/29 04:27:38;;;;;;;13.80;12.60;;;19.30;99.90;;;;;;5072467;28;20473;-88
2023/09/29 04:30:07;;;;;;;16.10;11.80;;;19.30;99.90;;;;;;5073801;28;20498;-88
2023/09/29 04:32:35;;;;;;;16.00;14.70;;;19.30;99.90;;;;;;5072929;28;20454;-88
2023/09/29 04:35:02;;;;;;;15.80;14.47;;;19.30;99.90;;;;;;5061303;28;20474;-85
2023/09/29 04:37:29;;;;;;;14.93;13.63;;;19.30;99.90;;;;;;5078429;28;20470;-86
2023/09/29 04:39:56;;;;;;;15.97;14.47;;;19.20;99.90;;;;;;5078384;28;20466;-86
2023/09/29 04:42:24;;;;;;;15.33;13.27;;;19.20;99.90;;;;;;5077728;28;20540;-86
2023/09/29 04:44:51;;;;;;;13.53;12.33;;;19.20;99.90;;;;;;5078636;28;20493;-86
2023/09/29 04:47:17;;;;;;;13.97;12.67;;;19.20;99.90;;;;;;5077496;28;20481;-82
2023/09/29 04:49:46;;;;;;;13.50;12.30;;;19.20;99.90;;;;;;5078360;28;20470;-87
2023/09/29 04:52:13;;;;;;;12.00;11.10;;;19.20;99.90;;;;;;5077162;28;20967;-82
2023/09/29 04:54:40;;;;;;;16.20;14.60;;;19.20;99.90;;;;;;5075832;28;20474;-82
2023/09/29 04:57:07;;;;;;;15.67;14.13;;;19.10;99.90;;;;;;5075550;28;20477;-82
2023/09/29 04:59:34;;;;;;;14.10;12.83;;;19.10;99.90;;;;;;5076068;28;20481;-82
2023/09/29 05:02:01;;;;;;;14.37;12.97;;;19.10;99.90;;;;;;5075321;28;20531;-82
2023/09/29 05:04:29;;;;;;;15.90;14.50;;;19.10;99.90;;;;;;5076035;28;20466;-86
2023/09/29 05:06:57;;;;;;;15.50;14.10;;;19.10;99.90;;;;;;5076120;28;20553;-81
2023/09/29 05:09:24;;;;;;;14.27;12.87;;;19.00;99.90;;;;;;5075120;28;20477;-82
2023/09/29 05:11:51;;;;;;;13.90;12.80;;;19.00;99.90;;;;;;5075908;28;20492;-81
2023/09/29 05:14:18;;;;;;;15.63;14.13;;;19.00;99.90;;;;;;5081728;28;20527;-86
2023/09/29 05:16:47;;;;;;;13.83;12.57;;;19.00;99.90;;;;;;5067299;28;20479;-87
2023/09/29 05:19:17;;;;;;;14.40;12.83;;;19.00;99.90;;;;;;5066878;28;20474;-86
2023/09/29 05:21:54;;;;;;;17.23;15.63;;;19.00;99.90;;;;;;5060772;28;20947;-88
2023/09/29 05:24:22;;;;;;;14.80;13.30;;;19.00;99.90;;;;;;5075132;28;20461;-88
2023/09/29 05:26:49;;;;;;;17.27;13.83;;;19.00;99.90;;;;;;5078560;28;20481;-87
2023/09/29 05:29:16;;;;;;;15.17;13.87;;;19.00;99.90;;;;;;5075136;28;20493;-88
2023/09/29 05:31:46;;;;;;;15.37;13.87;;;19.00;99.90;;;;;;5075783;28;20454;-88
2023/09/29 05:34:16;;;;;;;13.50;12.20;;;19.00;99.90;;;;;;5075764;28;20467;-88
2023/09/29 05:36:47;;;;;;;13.10;12.00;;;19.00;99.90;;;;;;5077495;28;20850;-88
2023/09/29 05:39:15;;;;;;;13.13;11.90;;;19.00;99.90;;;;;;5076649;28;20482;-87
2023/09/29 05:41:45;;;;;;;14.20;13.00;;;19.00;99.90;;;;;;5077194;28;20451;-88
2023/09/29 05:44:14;;;;;;;24.93;19.97;;;19.00;99.90;;;;;;5075855;28;20776;-87
2023/09/29 05:46:41;;;;;;;16.50;14.80;;;19.00;99.90;;;;;;5077381;28;20478;-87
2023/09/29 05:49:09;;;;;;;18.17;16.13;;;19.00;99.90;;;;;;5076800;28;20466;-87
2023/09/29 05:51:39;;;;;;;15.40;14.00;;;19.00;99.90;;;;;;5079477;28;20462;-83
2023/09/29 05:54:06;;;;;;;16.17;14.57;;;19.00;99.90;;;;;;5074635;28;20554;-83
2023/09/29 05:56:33;;;;;;;16.70;15.00;;;19.00;99.90;;;;;;5074944;28;20956;-83
2023/09/29 05:59:02;;;;;;;17.53;14.53;;;19.10;99.90;;;;;;5048921;28;20509;-83
2023/09/29 06:01:29;;;;;;;19.60;17.80;;;19.10;99.90;;;;;;5073654;28;20496;-81
2023/09/29 06:03:58;;;;;;;20.73;17.67;;;19.10;99.90;;;;;;5048713;28;20476;-83
2023/09/29 06:06:28;;;;;;;15.67;14.17;;;19.10;99.90;;;;;;5073485;28;20473;-83
2023/09/29 06:08:55;;;;;;;15.37;13.87;;;19.10;99.90;;;;;;5074573;28;20471;-83
2023/09/29 06:11:59;;;;;;;13.43;12.13;;;19.10;99.90;;;;;;5073590;28;20474;-82
2023/09/29 06:14:32;;;;;;;13.53;12.17;;;19.20;99.90;;;;;;5074465;28;20478;-83
2023/09/29 06:16:59;;;;;;;12.37;11.37;;;19.20;99.90;;;;;;5073739;28;20485;-83
2023/09/29 06:19:26;;;;;;;12.70;11.60;;;19.20;99.90;;;;;;5074707;28;20466;-82
2023/09/29 06:21:53;;;;;;;11.57;10.57;;;19.30;99.90;;;;;;5073843;28;20473;-83
2023/09/29 06:24:20;;;;;;;11.40;10.50;;;19.40;99.90;;;;;;5074431;28;20474;-82
2023/09/29 06:26:48;;;;;;;14.70;13.47;;;19.40;99.90;;;;;;5074727;28;20490;-83
2023/09/29 06:32:19;;;;;;;11.30;10.43;;;19.40;99.90;;;;;;5012804;28;20548;-82
2023/09/29 06:34:47;;;;;;;10.87;9.97;;;19.50;99.90;;;;;;5011988;28;20469;-82
2023/09/29 06:37:16;;;;;;;11.00;10.00;;;19.50;99.90;;;;;;5040443;28;20961;-82
2023/09/29 06:39:45;;;;;;;10.17;9.40;;;19.50;99.90;;;;;;5073755;28;20470;-82
2023/09/29 06:42:13;;;;;;;10.63;9.70;;;19.50;99.90;;;;;;5073884;28;20466;-83
2023/09/29 06:44:42;;;;;;;9.90;9.13;;;19.60;99.90;;;;;;5072820;28;20533;-83
2023/09/29 06:47:09;;;;;;;16.67;12.50;;;19.60;99.90;;;;;;5073771;28;20484;-82
2023/09/29 06:49:39;;;;;;;16.00;12.90;;;19.70;99.90;;;;;;5073304;28;20474;-83
2023/09/29 06:52:06;;;;;;;12.00;10.80;;;19.70;99.90;;;;;;5073929;28;20761;-82
2023/09/29 06:54:33;;;;;;;12.23;11.23;;;19.70;99.90;;;;;;5055683;28;20475;-83
2023/09/29 06:57:07;;;;;;;11.53;10.43;;;19.70;99.90;;;;;;5054497;28;20466;-81
2023/09/29 06:59:35;;;;;;;10.53;9.53;;;19.80;99.90;;;;;;5073418;28;21022;-82
2023/09/29 07:02:07;;;;;;;10.80;9.80;;;19.80;99.90;;;;;;5073048;28;20490;-81
2023/09/29 07:04:38;;;;;;;12.23;11.03;;;19.80;99.90;;;;;;5073033;28;20475;-80
2023/09/29 07:07:05;;;;;;;11.47;10.27;;;19.90;99.90;;;;;;5073433;28;20478;-81
2023/09/29 07:09:32;;;;;;;12.10;11.00;;;19.90;99.90;;;;;;5073468;28;21006;-80
2023/09/29 07:11:59;;;;;;;10.40;9.60;;;19.90;99.90;;;;;;5072345;28;20462;-82
2023/09/29 07:14:27;;;;;;;13.20;11.77;;;19.90;99.90;;;;;;5039291;28;20961;-82
2023/09/29 07:16:54;;;;;;;16.03;10.60;;;20.00;99.90;;;;;;5070067;28;20549;-81
2023/09/29 07:19:21;;;;;;;9.27;8.47;;;20.00;99.90;;;;;;5072583;28;20523;-82
2023/09/29 07:21:57;;;;;;;11.73;10.20;;;20.10;99.90;;;;;;5072739;28;20474;-82
2023/09/29 07:24:31;;;;;;;12.50;11.43;;;20.10;99.90;;;;;;5072420;28;20473;-82
2023/09/29 07:27:04;;;;;;;10.37;9.37;;;20.10;99.90;;;;;;5072651;28;20493;-82
2023/09/29 07:29:37;;;;;;;11.03;9.60;;;20.20;99.90;;;;;;5071719;28;20983;-82
2023/09/29 07:32:09;;;;;;;16.90;15.13;;;20.30;99.90;;;;;;5060723;28;20447;-82
2023/09/29 07:34:36;;;;;;;13.07;11.87;;;20.30;99.90;;;;;;5048728;28;20508;-82
2023/09/29 07:37:05;;;;;;;12.60;11.30;;;20.40;99.90;;;;;;5072356;28;20466;-82
2023/09/29 07:39:33;;;;;;;12.37;11.20;;;20.50;99.90;;;;;;5042422;28;20489;-82
2023/09/29 07:42:00;;;;;;;10.70;9.63;;;20.50;99.90;;;;;;5072408;28;20553;-82
2023/09/29 07:44:28;;;;;;;10.33;9.33;;;20.60;99.90;;;;;;5072164;28;20474;-82
2023/09/29 07:46:56;;;;;;;10.83;9.93;;;20.70;99.90;;;;;;5044760;28;20550;-82
2023/09/29 07:49:24;;;;;;;9.30;8.50;;;20.80;99.90;;;;;;5064123;28;20462;-82
2023/09/29 07:51:52;;;;;;;9.87;8.80;;;20.90;99.90;;;;;;5072893;28;20785;-82
2023/09/29 07:54:27;;;;;;;10.33;9.43;;;21.00;99.90;;;;;;5071988;28;20553;-82
2023/09/29 07:56:56;;;;;;;11.77;10.63;;;21.00;99.90;;;;;;5071556;28;20773;-81
2023/09/29 07:59:23;;;;;;;10.47;9.50;;;21.10;99.90;;;;;;5071024;28;20458;-83
2023/09/29 08:01:54;;;;;;;9.80;8.83;;;21.20;99.90;;;;;;5046685;28;20467;-82
2023/09/29 08:04:21;;;;;;;8.90;8.20;;;21.30;99.90;;;;;;5031356;28;20567;-83
2023/09/29 08:07:06;;;;;;;9.87;8.97;;;21.30;99.90;;;;;;5057544;28;20512;-83
2023/09/29 08:09:41;;;;;;;9.10;8.40;;;21.40;99.90;;;;;;5035921;28;20509;-82
2023/09/29 08:12:14;;;;;;;9.73;8.90;;;21.40;99.90;;;;;;5041546;28;20811;-82
2023/09/29 08:14:47;;;;;;;11.20;10.10;;;21.50;99.90;;;;;;5075073;28;20773;-83
2023/09/29 08:17:25;;;;;;;;;;;;;;;;;;;;;
2023/09/29 08:20:14;;;;;;;12.90;11.60;;;21.60;99.90;;;;;;5055112;28;20465;-83
2023/09/29 08:22:42;;;;;;;10.10;9.10;;;21.70;99.90;;;;;;5050543;28;20467;-83
2023/09/29 08:25:25;;;;;;;;;;;;;;;;;;;;;
2023/09/29 08:27:56;;;;;;;10.17;9.20;;;21.80;99.90;;;;;;5052556;28;20855;-83
2023/09/29 08:30:35;;;;;;;9.13;8.23;;;21.80;99.90;;;;;;5075025;28;20843;-82
2023/09/29 08:33:14;;;;;;;8.07;7.37;;;21.90;99.90;;;;;;5061591;28;20646;-82
2023/09/29 08:36:05;;;;;;;8.77;8.07;;;21.90;99.90;;;;;;5053439;28;20558;-81
2023/09/29 08:38:57;;;;;;;8.40;7.77;;;22.00;99.90;;;;;;5036696;28;20467;-82
2023/09/29 08:42:06;;;;;;;11.37;8.10;;;22.00;99.90;;;;;;5054093;28;20808;-82
2023/09/29 08:44:52;;;;;;;8.97;8.23;;;22.00;99.90;;;;;;5052906;28;20478;-83
2023/09/29 08:47:40;;;;;;;8.30;7.60;;;22.00;99.90;;;;;;5060227;28;20473;-83
2023/09/29 08:50:12;;;;;;;7.93;7.33;;;22.10;99.90;;;;;;5044596;28;20497;-83
2023/09/29 08:52:46;;;;;;;9.60;8.60;;;22.10;99.90;;;;;;5047383;28;20475;-83
2023/09/29 08:55:28;;;;;;;8.50;7.87;;;22.10;99.90;;;;;;5063388;28;20474;-82
2023/09/29 08:57:58;;;;;;;8.77;8.00;;;22.10;99.90;;;;;;5057887;28;20542;-82
2023/09/29 09:00:30;;;;;;;9.30;8.23;;;22.20;99.90;;;;;;5054187;28;20462;-83
2023/09/29 09:09:04;;;;;;;12.43;11.23;;;22.30;99.90;;;;;;5170165;23;20458;-82
2023/09/29 09:11:45;;;;;;;12.30;11.10;;;22.30;99.90;;;;;;5065720;28;20478;-88
2023/09/29 09:18:18;;;;;;;10.07;9.07;;;22.40;99.90;;;;;;4995835;28;20964;-88
2023/09/29 09:20:58;;;;;;;8.20;7.40;;;22.40;99.90;;;;;;5002511;28;20484;-86
2023/09/29 09:30:46;;;;;;;;;;;;;;;;;;;;;
2023/09/29 09:40:25;;;;;;;7.80;7.07;;;22.50;99.90;;;;;;4786719;29;20533;-87
2023/09/29 09:42:58;;;;;;;7.67;7.07;;;22.40;99.90;;;;;;4941661;28;20507;-89
2023/09/29 09:45:25;;;;;;;8.03;7.33;;;22.40;99.90;;;;;;5021976;28;20566;-86
2023/09/29 09:47:58;;;;;;;6.93;6.33;;;22.50;99.90;;;;;;5032769;28;20487;-87
2023/09/29 09:50:28;;;;;;;8.00;7.17;;;22.50;99.90;;;;;;5052215;28;20469;-83
2023/09/29 09:52:55;;;;;;;7.77;7.17;;;22.50;99.90;;;;;;5044629;28;20459;-83
2023/09/29 09:58:21;;;;;;;8.13;7.50;;;22.50;99.90;;;;;;5039546;28;20802;-86
2023/09/29 10:00:50;;;;;;;8.03;7.33;;;22.60;99.90;;;;;;5054503;28;20785;-83
2023/09/29 10:03:23;;;;;;;7.73;7.03;;;22.60;99.90;;;;;;5055380;28;20806;-84
2023/09/29 10:05:52;;;;;;;8.40;7.50;;;22.70;99.90;;;;;;5055069;28;20486;-86
2023/09/29 10:08:27;;;;;;;10.33;8.27;;;22.70;99.90;;;;;;5055398;28;20468;-83
2023/09/29 10:11:14;;;;;;;8.90;8.20;;;22.70;99.90;;;;;;5055341;28;20471;-83
2023/09/29 10:13:47;;;;;;;8.40;7.60;;;22.80;99.90;;;;;;5058928;28;20480;-88
2023/09/29 10:16:39;;;;;;;10.50;9.50;;;22.80;99.90;;;;;;5045709;28;20507;-88
2023/09/29 10:19:12;;;;;;;9.87;9.07;;;22.90;99.90;;;;;;5059031;28;20500;-88
2023/09/29 10:21:52;;;;;;;9.90;9.00;;;22.90;99.90;;;;;;5055349;28;20801;-87
2023/09/29 10:24:26;;;;;;;10.33;9.47;;;22.90;99.90;;;;;;5055172;28;20464;-89
2023/09/29 10:27:05;;;;;;;11.30;10.30;;;23.00;99.90;;;;;;5045875;28;20957;-83
2023/09/29 10:29:40;;;;;;;13.20;12.00;;;23.00;99.90;;;;;;5053414;28;20471;-83
2023/09/29 10:32:15;;;;;;;11.93;10.73;;;23.00;99.90;;;;;;5043831;28;20506;-83
2023/09/29 10:34:44;;;;;;;11.80;10.80;;;23.00;99.90;;;;;;5053665;28;20521;-83
2023/09/29 10:37:22;;;;;;;10.53;9.20;;;23.00;99.90;;;;;;5053627;28;20546;-83
2023/09/29 10:40:12;;;;;;;16.40;10.30;;;23.10;99.90;;;;;;5054601;28;20850;-88
2023/09/29 10:42:42;;;;;;;11.87;10.77;;;23.10;99.90;;;;;;5045118;28;20809;-88
2023/09/29 10:45:10;;;;;;;8.83;7.93;;;23.10;99.90;;;;;;5053611;28;20464;-88
2023/09/29 10:47:39;;;;;;;9.57;8.70;;;23.10;99.90;;;;;;5054433;28;20463;-87
2023/09/29 10:50:13;;;;;;;11.83;10.10;;;23.20;99.90;;;;;;5053949;28;20468;-87
2023/09/29 10:52:45;;;;;;;12.67;10.60;;;23.20;99.90;;;;;;5044146;28;20562;-87
2023/09/29 10:55:13;;;;;;;10.00;9.00;;;23.30;99.90;;;;;;5054033;28;20557;-88
2023/09/29 10:57:43;;;;;;;9.63;8.57;;;23.30;99.90;;;;;;5053795;28;20467;-87
2023/09/29 11:00:25;;;;;;;11.13;10.13;;;23.40;99.90;;;;;;5043758;28;20471;-87
2023/09/29 11:02:52;;;;;;;9.50;8.60;;;23.40;99.90;;;;;;5051309;28;20542;-88
2023/09/29 11:05:29;;;;;;;9.33;8.40;;;23.50;99.90;;;;;;5043645;28;20567;-86
2023/09/29 11:07:58;;;;;;;9.40;7.57;;;23.50;99.90;;;;;;5043576;28;20485;-87
2023/09/29 11:10:27;;;;;;;9.30;8.40;;;23.50;99.90;;;;;;5030451;28;20467;-88
2023/09/29 11:13:17;;;;;;;9.00;8.10;;;23.50;99.90;;;;;;5053679;28;20570;-88
2023/09/29 11:15:47;;;;;;;8.90;8.20;;;23.60;99.90;;;;;;5055240;28;20475;-82
2023/09/29 11:18:30;;;;;;;11.00;10.10;;;23.60;99.90;;;;;;5043731;28;20549;-83
2023/09/29 11:21:10;;;;;;;13.33;11.90;;;23.60;99.90;;;;;;5055418;28;20470;-87
2023/09/29 11:23:45;;;;;;;12.20;11.10;;;23.50;99.90;;;;;;5054588;28;20559;-83
2023/09/29 11:26:13;;;;;;;11.57;10.10;;;23.50;99.90;;;;;;5054370;28;20785;-88
2023/09/29 11:28:47;;;;;;;10.63;9.60;;;23.50;99.90;;;;;;5053709;28;20467;-82
2023/09/29 11:31:17;;;;;;;9.83;8.83;;;23.50;99.90;;;;;;5053356;28;20459;-87
2023/09/29 11:34:06;;;;;;;10.00;9.00;;;23.50;99.90;;;;;;5054640;28;20478;-87
2023/09/29 11:36:44;;;;;;;9.50;8.63;;;23.50;99.90;;;;;;5045451;28;20483;-87
2023/09/29 11:42:08;;;;;;;9.00;8.20;;;23.40;99.90;;;;;;5030898;28;20528;-82
2023/09/29 11:44:50;;;;;;;8.00;7.40;;;23.40;99.90;;;;;;5052496;28;20482;-87
2023/09/29 11:47:18;;;;;;;9.20;8.50;;;23.40;99.90;;;;;;5051868;28;20809;-87
2023/09/29 11:49:57;;;;;;;;;;;;;;;;;;;;;
2023/09/29 11:52:48;;;;;;;9.13;7.70;;;23.40;99.90;;;;;;5020981;28;20629;-88
2023/09/29 11:55:26;;;;;;;8.50;7.80;;;23.40;99.90;;;;;;5031294;28;20459;-83
2023/09/29 12:01:08;;;;;;;7.90;7.10;;;23.40;99.90;;;;;;4994033;28;20459;-83
2023/09/29 12:04:05;;;;;;;10.60;8.27;;;23.40;99.90;;;;;;5030634;28;20540;-83
2023/09/29 12:07:37;;;;;;;9.03;7.50;;;23.40;99.90;;;;;;5019441;28;20488;-83
2023/09/29 12:10:50;;;;;;;;;;;;;;;;;;;;;
2023/09/29 12:16:41;;;;;;;8.50;7.80;;;23.50;99.90;;;;;;5003177;28;20818;-83
2023/09/29 12:22:38;;;;;;;12.60;9.70;;;23.50;99.90;;;;;;5012071;28;20465;-88
2023/09/29 12:25:09;;;;;;;7.70;6.90;;;23.50;99.90;;;;;;5053673;28;20459;-88
2023/09/29 12:27:39;;;;;;;8.77;7.80;;;23.50;99.90;;;;;;5043688;28;20486;-88
2023/09/29 12:30:12;;;;;;;12.30;7.53;;;23.40;99.90;;;;;;5057206;28;20534;-88
2023/09/29 12:33:07;;;;;;;11.20;7.43;;;23.50;99.90;;;;;;5055152;28;20466;-88
2023/09/29 12:35:56;;;;;;;6.73;6.10;;;23.50;99.90;;;;;;5055051;28;20467;-87
2023/09/29 12:38:24;;;;;;;9.83;6.97;;;23.50;99.90;;;;;;5053758;28;20516;-88
2023/09/29 12:40:53;;;;;;;7.83;7.13;;;23.50;99.90;;;;;;5054438;28;20478;-88
2023/09/29 12:46:02;;;;;;;6.90;6.30;;;23.50;99.90;;;;;;5500675;23;20466;-88
2023/09/29 12:48:35;;;;;;;9.30;8.47;;;23.50;99.90;;;;;;5077216;28;20557;-87
2023/09/29 12:51:08;;;;;;;8.70;8.00;;;23.50;99.90;;;;;;5074867;28;20581;-89
2023/09/29 12:56:33;;;;;;;10.10;7.30;;;23.50;99.90;;;;;;5079321;28;20464;-88
2023/09/29 12:59:00;;;;;;;8.47;7.80;;;23.50;99.90;;;;;;5066896;28;20461;-88
2023/09/29 13:01:32;;;;;;;7.73;7.13;;;23.40;99.90;;;;;;5070461;28;20474;-88
2023/09/29 13:04:02;;;;;;;9.87;7.70;;;23.50;99.90;;;;;;5072742;28;20473;-88
2023/09/29 13:06:33;;;;;;;7.83;7.10;;;23.40;99.90;;;;;;5079677;28;20505;-87
2023/09/29 13:09:03;;;;;;;8.20;7.23;;;23.40;99.90;;;;;;5081692;28;20470;-88
2023/09/29 13:11:36;;;;;;;7.30;6.70;;;23.40;99.90;;;;;;5082361;28;20543;-87
2023/09/29 13:14:08;;;;;;;7.23;6.63;;;23.40;99.90;;;;;;5082121;28;20481;-83
2023/09/29 13:16:35;;;;;;;9.67;6.47;;;23.40;99.90;;;;;;5075457;28;20462;-83
2023/09/29 13:19:31;;;;;;;7.13;6.60;;;23.30;99.90;;;;;;5072061;28;20469;-87
2023/09/29 13:22:07;;;;;;;7.07;6.50;;;23.30;99.90;;;;;;5084261;28;20455;-89
2023/09/29 13:24:40;;;;;;;7.03;6.30;;;23.20;99.90;;;;;;5076960;28;20466;-89
2023/09/29 13:27:16;;;;;;;6.97;6.37;;;23.20;99.90;;;;;;5080735;28;20462;-88
2023/09/29 13:29:48;;;;;;;7.83;7.03;;;23.20;99.90;;;;;;5069783;28;20484;-88
2023/09/29 13:32:21;;;;;;;8.20;7.50;;;23.20;99.90;;;;;;5069528;28;20528;-89
2023/09/29 13:34:55;;;;;;;7.10;6.50;;;23.10;99.90;;;;;;5091878;28;20470;-89
2023/09/29 13:37:25;;;;;;;8.90;8.10;;;23.10;99.90;;;;;;5081859;28;20489;-88
2023/09/29 13:39:59;;;;;;;8.30;7.60;;;23.20;99.90;;;;;;5093563;28;20511;-88
2023/09/29 13:42:53;;;;;;;7.50;6.80;;;23.10;99.90;;;;;;5073963;28;20570;-90
2023/09/29 13:45:28;;;;;;;8.40;7.60;;;23.10;99.90;;;;;;5077739;28;20876;-82
2023/09/29 13:47:55;;;;;;;8.03;7.10;;;23.10;99.90;;;;;;5077409;28;20519;-82
2023/09/29 13:50:25;;;;;;;8.30;7.53;;;23.10;99.90;;;;;;5078175;28;20474;-83
2023/09/29 13:52:52;;;;;;;7.67;6.90;;;23.10;99.90;;;;;;5079823;28;20470;-83